sensor_id;sensor_type;location;lat;lon;timestamp;P1;durP1;ratioP1;P2;durP2;ratioP2
1839;SDS011;920;48.944;9.148;2023-02-01T00:01:18;2.43;;;1.60;;
1839;SDS011;920;48.944;9.148;2023-02-01T00:03:45;2.13;;;1.50;;
1839;SDS011;920;48.944;9.148;2023-02-01T00:06:12;2.10;;;1.63;;
1839;SDS011;920;48.944;9.148;2023-02-01T00:08:41;2.90;;;1.50;;
1839;SDS011;920;48.944;9.148;2023-02-01T00:11:11;2.63;;;1.40;;
1839;SDS011;920;48.944;9.148;2023-02-01T00:13:39;1.80;;;1.37;;
1839;SDS011;920;48.944;9.148;2023-02-01T00:16:09;1.70;;;1.40;;
1839;SDS011;920;48.944;9.148;2023-02-01T00:18:38;1.83;;;1.30;;
1839;SDS011;920;48.944;9.148;2023-02-01T00:21:06;1.70;;;1.30;;
1839;SDS011;920;48.944;9.148;2023-02-01T00:23:35;2.10;;;1.40;;
1839;SDS011;920;48.944;9.148;2023-02-01T00:26:06;2.00;;;1.57;;
1839;SDS011;920;48.944;9.148;2023-02-01T00:28:35;2.00;;;1.50;;
1839;SDS011;920;48.944;9.148;2023-02-01T00:31:03;2.97;;;1.80;;
1839;SDS011;920;48.944;9.148;2023-02-01T00:33:32;2.30;;;1.70;;
1839;SDS011;920;48.944;9.148;2023-02-01T00:36:02;2.43;;;1.70;;
1839;SDS011;920;48.944;9.148;2023-02-01T00:38:33;2.40;;;1.80;;
1839;SDS011;920;48.944;9.148;2023-02-01T00:41:03;2.40;;;2.07;;
1839;SDS011;920;48.944;9.148;2023-02-01T00:43:31;2.60;;;2.10;;
1839;SDS011;920;48.944;9.148;2023-02-01T00:45:58;2.50;;;1.77;;
1839;SDS011;920;48.944;9.148;2023-02-01T00:48:25;3.73;;;1.90;;
1839;SDS011;920;48.944;9.148;2023-02-01T00:50:53;3.00;;;2.07;;
1839;SDS011;920;48.944;9.148;2023-02-01T00:53:23;1.93;;;1.60;;
1839;SDS011;920;48.944;9.148;2023-02-01T00:55:49;2.53;;;1.50;;
1839;SDS011;920;48.944;9.148;2023-02-01T00:58:16;2.27;;;1.50;;
1839;SDS011;920;48.944;9.148;2023-02-01T01:00:45;2.50;;;1.53;;
1839;SDS011;920;48.944;9.148;2023-02-01T01:03:14;2.40;;;1.80;;
1839;SDS011;920;48.944;9.148;2023-02-01T01:05:47;2.00;;;1.47;;
1839;SDS011;920;48.944;9.148;2023-02-01T01:08:16;2.13;;;1.40;;
1839;SDS011;920;48.944;9.148;2023-02-01T01:10:43;1.73;;;1.33;;
1839;SDS011;920;48.944;9.148;2023-02-01T01:13:12;2.63;;;1.60;;
1839;SDS011;920;48.944;9.148;2023-02-01T01:15:39;2.10;;;1.43;;
1839;SDS011;920;48.944;9.148;2023-02-01T01:18:09;2.43;;;1.30;;
1839;SDS011;920;48.944;9.148;2023-02-01T01:20:36;2.90;;;1.60;;
1839;SDS011;920;48.944;9.148;2023-02-01T01:23:04;2.70;;;1.80;;
1839;SDS011;920;48.944;9.148;2023-02-01T01:25:32;2.37;;;1.60;;
1839;SDS011;920;48.944;9.148;2023-02-01T01:27:59;2.37;;;1.47;;
1839;SDS011;920;48.944;9.148;2023-02-01T01:30:26;1.80;;;1.50;;
1839;SDS011;920;48.944;9.148;2023-02-01T01:32:52;1.83;;;1.47;;
1839;SDS011;920;48.944;9.148;2023-02-01T01:35:19;1.80;;;1.27;;
1839;SDS011;920;48.944;9.148;2023-02-01T01:37:46;2.87;;;1.70;;
1839;SDS011;920;48.944;9.148;2023-02-01T01:40:13;2.00;;;1.70;;
1839;SDS011;920;48.944;9.148;2023-02-01T01:42:45;2.20;;;1.40;;
1839;SDS011;920;48.944;9.148;2023-02-01T01:45:22;2.00;;;1.10;;
1839;SDS011;920;48.944;9.148;2023-02-01T01:47:51;2.17;;;1.70;;
1839;SDS011;920;48.944;9.148;2023-02-01T01:50:23;2.13;;;1.57;;
1839;SDS011;920;48.944;9.148;2023-02-01T01:52:52;1.90;;;1.40;;
1839;SDS011;920;48.944;9.148;2023-02-01T01:55:22;2.20;;;1.40;;
1839;SDS011;920;48.944;9.148;2023-02-01T01:57:54;2.00;;;1.40;;
1839;SDS011;920;48.944;9.148;2023-02-01T02:00:32;2.33;;;1.20;;
1839;SDS011;920;48.944;9.148;2023-02-01T02:02:59;3.00;;;1.80;;
1839;SDS011;920;48.944;9.148;2023-02-01T02:05:32;2.17;;;1.67;;
1839;SDS011;920;48.944;9.148;2023-02-01T02:08:02;2.10;;;1.53;;
1839;SDS011;920;48.944;9.148;2023-02-01T02:10:29;2.33;;;1.50;;
1839;SDS011;920;48.944;9.148;2023-02-01T02:13:14;2.23;;;1.50;;
1839;SDS011;920;48.944;9.148;2023-02-01T02:15:42;2.40;;;1.40;;
1839;SDS011;920;48.944;9.148;2023-02-01T02:18:12;2.00;;;1.67;;
1839;SDS011;920;48.944;9.148;2023-02-01T02:20:49;2.03;;;1.70;;
1839;SDS011;920;48.944;9.148;2023-02-01T02:23:38;2.10;;;1.50;;
1839;SDS011;920;48.944;9.148;2023-02-01T02:26:36;2.13;;;1.60;;
1839;SDS011;920;48.944;9.148;2023-02-01T02:29:26;3.27;;;1.67;;
1839;SDS011;920;48.944;9.148;2023-02-01T02:35:27;2.80;;;1.90;;
1839;SDS011;920;48.944;9.148;2023-02-01T02:38:01;2.40;;;1.90;;
1839;SDS011;920;48.944;9.148;2023-02-01T02:40:32;2.30;;;1.80;;
1839;SDS011;920;48.944;9.148;2023-02-01T02:43:04;3.83;;;1.80;;
1839;SDS011;920;48.944;9.148;2023-02-01T02:45:54;2.47;;;2.00;;
1839;SDS011;920;48.944;9.148;2023-02-01T02:48:44;2.30;;;1.70;;
1839;SDS011;920;48.944;9.148;2023-02-01T02:51:14;1.90;;;1.50;;
1839;SDS011;920;48.944;9.148;2023-02-01T02:54:00;1.80;;;1.50;;
1839;SDS011;920;48.944;9.148;2023-02-01T02:56:48;2.57;;;1.63;;
1839;SDS011;920;48.944;9.148;2023-02-01T02:59:33;1.80;;;1.40;;
1839;SDS011;920;48.944;9.148;2023-02-01T03:02:19;1.80;;;1.40;;
1839;SDS011;920;48.944;9.148;2023-02-01T03:05:07;2.20;;;1.70;;
1839;SDS011;920;48.944;9.148;2023-02-01T03:07:49;1.97;;;1.50;;
1839;SDS011;920;48.944;9.148;2023-02-01T03:10:43;2.03;;;1.60;;
1839;SDS011;920;48.944;9.148;2023-02-01T03:13:17;1.87;;;1.33;;
1839;SDS011;920;48.944;9.148;2023-02-01T03:15:51;1.87;;;1.50;;
1839;SDS011;920;48.944;9.148;2023-02-01T03:18:26;1.90;;;1.30;;
1839;SDS011;920;48.944;9.148;2023-02-01T03:21:00;1.80;;;1.40;;
1839;SDS011;920;48.944;9.148;2023-02-01T03:23:37;1.90;;;1.40;;
1839;SDS011;920;48.944;9.148;2023-02-01T03:26:10;2.03;;;1.40;;
1839;SDS011;920;48.944;9.148;2023-02-01T03:28:41;3.03;;;1.30;;
1839;SDS011;920;48.944;9.148;2023-02-01T03:31:11;1.80;;;1.40;;
1839;SDS011;920;48.944;9.148;2023-02-01T03:33:39;1.60;;;1.40;;
1839;SDS011;920;48.944;9.148;2023-02-01T03:36:10;1.40;;;1.10;;
1839;SDS011;920;48.944;9.148;2023-02-01T03:38:47;1.93;;;1.33;;
1839;SDS011;920;48.944;9.148;2023-02-01T03:41:19;2.33;;;1.40;;
1839;SDS011;920;48.944;9.148;2023-02-01T03:43:54;2.00;;;1.40;;
1839;SDS011;920;48.944;9.148;2023-02-01T03:46:28;2.00;;;1.40;;
1839;SDS011;920;48.944;9.148;2023-02-01T03:49:02;2.00;;;1.43;;
1839;SDS011;920;48.944;9.148;2023-02-01T03:51:35;2.10;;;1.50;;
1839;SDS011;920;48.944;9.148;2023-02-01T03:54:04;2.63;;;1.70;;
1839;SDS011;920;48.944;9.148;2023-02-01T03:56:31;1.87;;;1.50;;
1839;SDS011;920;48.944;9.148;2023-02-01T03:59:02;1.93;;;1.10;;
1839;SDS011;920;48.944;9.148;2023-02-01T04:01:33;2.20;;;1.50;;
1839;SDS011;920;48.944;9.148;2023-02-01T04:04:00;1.73;;;1.30;;
1839;SDS011;920;48.944;9.148;2023-02-01T04:06:27;1.70;;;1.30;;
1839;SDS011;920;48.944;9.148;2023-02-01T04:08:59;1.87;;;1.30;;
1839;SDS011;920;48.944;9.148;2023-02-01T04:11:27;1.80;;;1.40;;
1839;SDS011;920;48.944;9.148;2023-02-01T04:13:54;2.00;;;1.50;;
1839;SDS011;920;48.944;9.148;2023-02-01T04:16:21;2.43;;;2.20;;
1839;SDS011;920;48.944;9.148;2023-02-01T04:18:47;2.57;;;1.80;;
1839;SDS011;920;48.944;9.148;2023-02-01T04:21:14;3.00;;;1.90;;
1839;SDS011;920;48.944;9.148;2023-02-01T04:23:41;2.43;;;1.70;;
1839;SDS011;920;48.944;9.148;2023-02-01T04:26:10;2.07;;;1.70;;
1839;SDS011;920;48.944;9.148;2023-02-01T04:28:41;2.40;;;1.80;;
1839;SDS011;920;48.944;9.148;2023-02-01T04:31:09;4.27;;;2.07;;
1839;SDS011;920;48.944;9.148;2023-02-01T04:33:35;2.30;;;1.50;;
1839;SDS011;920;48.944;9.148;2023-02-01T04:36:02;2.30;;;1.70;;
1839;SDS011;920;48.944;9.148;2023-02-01T04:38:31;3.00;;;2.20;;
1839;SDS011;920;48.944;9.148;2023-02-01T04:40:59;2.93;;;2.57;;
1839;SDS011;920;48.944;9.148;2023-02-01T04:43:28;2.90;;;1.93;;
1839;SDS011;920;48.944;9.148;2023-02-01T04:46:00;2.47;;;1.90;;
1839;SDS011;920;48.944;9.148;2023-02-01T04:48:27;2.17;;;1.73;;
1839;SDS011;920;48.944;9.148;2023-02-01T04:50:54;2.63;;;1.90;;
1839;SDS011;920;48.944;9.148;2023-02-01T04:53:23;3.23;;;1.97;;
1839;SDS011;920;48.944;9.148;2023-02-01T04:55:51;3.20;;;2.20;;
1839;SDS011;920;48.944;9.148;2023-02-01T04:58:19;2.63;;;1.80;;
1839;SDS011;920;48.944;9.148;2023-02-01T05:00:49;2.10;;;1.80;;
1839;SDS011;920;48.944;9.148;2023-02-01T05:03:19;2.40;;;1.87;;
1839;SDS011;920;48.944;9.148;2023-02-01T05:05:46;2.03;;;1.43;;
1839;SDS011;920;48.944;9.148;2023-02-01T05:08:14;2.17;;;1.67;;
1839;SDS011;920;48.944;9.148;2023-02-01T05:10:44;1.87;;;1.50;;
1839;SDS011;920;48.944;9.148;2023-02-01T05:13:14;2.10;;;1.70;;
1839;SDS011;920;48.944;9.148;2023-02-01T05:16:01;2.10;;;1.40;;
1839;SDS011;920;48.944;9.148;2023-02-01T05:18:29;2.10;;;1.60;;
1839;SDS011;920;48.944;9.148;2023-02-01T05:20:56;2.30;;;1.73;;
1839;SDS011;920;48.944;9.148;2023-02-01T05:23:23;2.03;;;1.63;;
1839;SDS011;920;48.944;9.148;2023-02-01T05:25:49;2.40;;;1.70;;
1839;SDS011;920;48.944;9.148;2023-02-01T05:28:18;2.67;;;1.80;;
1839;SDS011;920;48.944;9.148;2023-02-01T05:30:44;2.50;;;1.60;;
1839;SDS011;920;48.944;9.148;2023-02-01T05:33:13;3.27;;;1.93;;
1839;SDS011;920;48.944;9.148;2023-02-01T05:35:44;3.60;;;1.60;;
1839;SDS011;920;48.944;9.148;2023-02-01T05:38:11;2.20;;;1.80;;
1839;SDS011;920;48.944;9.148;2023-02-01T05:40:40;2.60;;;1.90;;
1839;SDS011;920;48.944;9.148;2023-02-01T05:43:07;2.07;;;1.50;;
1839;SDS011;920;48.944;9.148;2023-02-01T05:45:36;2.37;;;1.70;;
1839;SDS011;920;48.944;9.148;2023-02-01T05:48:06;2.13;;;1.70;;
1839;SDS011;920;48.944;9.148;2023-02-01T05:50:32;3.07;;;2.00;;
1839;SDS011;920;48.944;9.148;2023-02-01T05:53:09;2.93;;;1.60;;
1839;SDS011;920;48.944;9.148;2023-02-01T05:55:35;2.17;;;1.60;;
1839;SDS011;920;48.944;9.148;2023-02-01T05:58:02;2.20;;;1.70;;
1839;SDS011;920;48.944;9.148;2023-02-01T06:00:29;3.00;;;1.77;;
1839;SDS011;920;48.944;9.148;2023-02-01T06:02:56;3.30;;;2.10;;
1839;SDS011;920;48.944;9.148;2023-02-01T06:05:23;2.47;;;1.90;;
1839;SDS011;920;48.944;9.148;2023-02-01T06:07:49;2.10;;;1.70;;
1839;SDS011;920;48.944;9.148;2023-02-01T06:10:18;2.10;;;1.70;;
1839;SDS011;920;48.944;9.148;2023-02-01T06:12:44;2.67;;;1.63;;
1839;SDS011;920;48.944;9.148;2023-02-01T06:15:12;2.23;;;1.90;;
1839;SDS011;920;48.944;9.148;2023-02-01T06:17:40;3.23;;;1.67;;
1839;SDS011;920;48.944;9.148;2023-02-01T06:20:08;3.00;;;1.87;;
1839;SDS011;920;48.944;9.148;2023-02-01T06:22:36;3.87;;;2.10;;
1839;SDS011;920;48.944;9.148;2023-02-01T06:25:06;2.17;;;1.87;;
1839;SDS011;920;48.944;9.148;2023-02-01T06:27:38;3.87;;;2.17;;
1839;SDS011;920;48.944;9.148;2023-02-01T06:30:05;5.83;;;2.40;;
1839;SDS011;920;48.944;9.148;2023-02-01T06:32:33;3.63;;;2.70;;
1839;SDS011;920;48.944;9.148;2023-02-01T06:35:00;2.80;;;2.17;;
1839;SDS011;920;48.944;9.148;2023-02-01T06:37:27;3.20;;;2.40;;
1839;SDS011;920;48.944;9.148;2023-02-01T06:39:54;3.90;;;2.90;;
1839;SDS011;920;48.944;9.148;2023-02-01T06:42:21;4.27;;;2.90;;
1839;SDS011;920;48.944;9.148;2023-02-01T06:44:53;5.10;;;3.30;;
1839;SDS011;920;48.944;9.148;2023-02-01T06:47:20;4.00;;;3.07;;
1839;SDS011;920;48.944;9.148;2023-02-01T06:49:46;3.80;;;2.77;;
1839;SDS011;920;48.944;9.148;2023-02-01T06:52:16;7.83;;;3.50;;
1839;SDS011;920;48.944;9.148;2023-02-01T06:54:44;5.93;;;3.33;;
1839;SDS011;920;48.944;9.148;2023-02-01T06:57:14;7.70;;;3.70;;
1839;SDS011;920;48.944;9.148;2023-02-01T06:59:40;5.70;;;3.23;;
1839;SDS011;920;48.944;9.148;2023-02-01T07:02:10;5.87;;;3.20;;
1839;SDS011;920;48.944;9.148;2023-02-01T07:04:37;5.93;;;3.47;;
1839;SDS011;920;48.944;9.148;2023-02-01T07:07:03;4.40;;;3.13;;
1839;SDS011;920;48.944;9.148;2023-02-01T07:09:33;5.30;;;3.20;;
1839;SDS011;920;48.944;9.148;2023-02-01T07:12:01;6.07;;;3.67;;
1839;SDS011;920;48.944;9.148;2023-02-01T07:14:28;6.30;;;3.63;;
1839;SDS011;920;48.944;9.148;2023-02-01T07:16:58;5.20;;;3.77;;
1839;SDS011;920;48.944;9.148;2023-02-01T07:19:26;7.80;;;3.83;;
1839;SDS011;920;48.944;9.148;2023-02-01T07:21:56;5.03;;;3.60;;
1839;SDS011;920;48.944;9.148;2023-02-01T07:24:24;5.93;;;3.50;;
1839;SDS011;920;48.944;9.148;2023-02-01T07:26:51;5.10;;;3.83;;
1839;SDS011;920;48.944;9.148;2023-02-01T07:29:20;5.00;;;3.73;;
1839;SDS011;920;48.944;9.148;2023-02-01T07:31:50;7.10;;;4.50;;
1839;SDS011;920;48.944;9.148;2023-02-01T07:34:17;8.17;;;4.40;;
1839;SDS011;920;48.944;9.148;2023-02-01T07:36:51;5.03;;;3.50;;
1839;SDS011;920;48.944;9.148;2023-02-01T07:39:17;5.50;;;3.90;;
1839;SDS011;920;48.944;9.148;2023-02-01T07:41:50;7.30;;;3.87;;
1839;SDS011;920;48.944;9.148;2023-02-01T07:44:16;5.17;;;3.60;;
1839;SDS011;920;48.944;9.148;2023-02-01T07:46:47;5.27;;;3.70;;
1839;SDS011;920;48.944;9.148;2023-02-01T07:49:19;7.00;;;3.73;;
1839;SDS011;920;48.944;9.148;2023-02-01T07:51:45;5.97;;;4.07;;
1839;SDS011;920;48.944;9.148;2023-02-01T07:54:15;7.07;;;4.27;;
1839;SDS011;920;48.944;9.148;2023-02-01T07:56:45;6.90;;;3.80;;
1839;SDS011;920;48.944;9.148;2023-02-01T07:59:11;7.87;;;3.90;;
1839;SDS011;920;48.944;9.148;2023-02-01T08:01:38;5.67;;;3.73;;
1839;SDS011;920;48.944;9.148;2023-02-01T08:04:04;6.17;;;3.90;;
1839;SDS011;920;48.944;9.148;2023-02-01T08:06:33;8.73;;;4.00;;
1839;SDS011;920;48.944;9.148;2023-02-01T08:09:00;6.33;;;4.00;;
1839;SDS011;920;48.944;9.148;2023-02-01T08:11:28;5.27;;;3.63;;
1839;SDS011;920;48.944;9.148;2023-02-01T08:13:58;7.20;;;3.47;;
1839;SDS011;920;48.944;9.148;2023-02-01T08:16:25;5.50;;;3.30;;
1839;SDS011;920;48.944;9.148;2023-02-01T08:18:53;6.00;;;3.43;;
1839;SDS011;920;48.944;9.148;2023-02-01T08:21:24;5.27;;;3.60;;
1839;SDS011;920;48.944;9.148;2023-02-01T08:23:52;9.33;;;3.87;;
1839;SDS011;920;48.944;9.148;2023-02-01T08:26:22;5.90;;;3.40;;
1839;SDS011;920;48.944;9.148;2023-02-01T08:28:55;5.90;;;3.30;;
1839;SDS011;920;48.944;9.148;2023-02-01T08:31:25;6.00;;;3.57;;
1839;SDS011;920;48.944;9.148;2023-02-01T08:33:53;10.43;;;3.93;;
1839;SDS011;920;48.944;9.148;2023-02-01T08:36:21;7.43;;;3.27;;
1839;SDS011;920;48.944;9.148;2023-02-01T08:38:51;4.37;;;2.70;;
1839;SDS011;920;48.944;9.148;2023-02-01T08:41:20;8.43;;;3.40;;
1839;SDS011;920;48.944;9.148;2023-02-01T08:43:48;4.00;;;3.20;;
1839;SDS011;920;48.944;9.148;2023-02-01T08:46:20;9.27;;;3.37;;
1839;SDS011;920;48.944;9.148;2023-02-01T08:48:48;5.83;;;3.03;;
1839;SDS011;920;48.944;9.148;2023-02-01T08:51:16;5.07;;;3.10;;
1839;SDS011;920;48.944;9.148;2023-02-01T08:53:43;7.80;;;3.53;;
1839;SDS011;920;48.944;9.148;2023-02-01T08:56:11;3.87;;;2.70;;
1839;SDS011;920;48.944;9.148;2023-02-01T08:58:38;7.77;;;3.30;;
1839;SDS011;920;48.944;9.148;2023-02-01T09:01:05;10.40;;;3.80;;
1839;SDS011;920;48.944;9.148;2023-02-01T09:03:34;5.10;;;3.30;;
1839;SDS011;920;48.944;9.148;2023-02-01T09:06:01;6.30;;;3.37;;
1839;SDS011;920;48.944;9.148;2023-02-01T09:08:30;5.17;;;2.80;;
1839;SDS011;920;48.944;9.148;2023-02-01T09:10:59;6.27;;;3.00;;
1839;SDS011;920;48.944;9.148;2023-02-01T09:13:28;5.57;;;3.07;;
1839;SDS011;920;48.944;9.148;2023-02-01T09:15:55;6.57;;;3.90;;
1839;SDS011;920;48.944;9.148;2023-02-01T09:18:24;6.30;;;2.60;;
1839;SDS011;920;48.944;9.148;2023-02-01T09:20:55;4.10;;;2.87;;
1839;SDS011;920;48.944;9.148;2023-02-01T09:23:21;4.13;;;2.60;;
1839;SDS011;920;48.944;9.148;2023-02-01T09:25:50;6.40;;;2.50;;
1839;SDS011;920;48.944;9.148;2023-02-01T09:28:20;4.93;;;2.93;;
1839;SDS011;920;48.944;9.148;2023-02-01T09:30:54;5.40;;;2.67;;
1839;SDS011;920;48.944;9.148;2023-02-01T09:33:24;5.90;;;3.10;;
1839;SDS011;920;48.944;9.148;2023-02-01T09:35:59;5.17;;;3.03;;
1839;SDS011;920;48.944;9.148;2023-02-01T09:38:27;6.73;;;2.93;;
1839;SDS011;920;48.944;9.148;2023-02-01T09:40:54;8.33;;;3.40;;
1839;SDS011;920;48.944;9.148;2023-02-01T09:43:25;6.87;;;3.47;;
1839;SDS011;920;48.944;9.148;2023-02-01T09:46:19;8.00;;;3.10;;
1839;SDS011;920;48.944;9.148;2023-02-01T09:48:52;7.90;;;3.50;;
1839;SDS011;920;48.944;9.148;2023-02-01T09:51:23;9.07;;;3.40;;
1839;SDS011;920;48.944;9.148;2023-02-01T09:53:55;6.50;;;2.90;;
1839;SDS011;920;48.944;9.148;2023-02-01T09:56:30;6.47;;;2.83;;
1839;SDS011;920;48.944;9.148;2023-02-01T09:59:01;7.50;;;3.40;;
1839;SDS011;920;48.944;9.148;2023-02-01T10:01:37;5.93;;;2.93;;
1839;SDS011;920;48.944;9.148;2023-02-01T10:04:05;7.07;;;2.87;;
1839;SDS011;920;48.944;9.148;2023-02-01T10:06:39;10.00;;;3.00;;
1839;SDS011;920;48.944;9.148;2023-02-01T10:09:14;6.77;;;2.67;;
1839;SDS011;920;48.944;9.148;2023-02-01T10:11:48;9.20;;;3.23;;
1839;SDS011;920;48.944;9.148;2023-02-01T10:14:31;9.10;;;3.23;;
1839;SDS011;920;48.944;9.148;2023-02-01T10:17:10;8.67;;;2.80;;
1839;SDS011;920;48.944;9.148;2023-02-01T10:19:43;6.57;;;2.73;;
1839;SDS011;920;48.944;9.148;2023-02-01T10:22:15;7.83;;;3.07;;
1839;SDS011;920;48.944;9.148;2023-02-01T10:24:47;6.67;;;2.97;;
1839;SDS011;920;48.944;9.148;2023-02-01T10:27:22;7.43;;;2.80;;
1839;SDS011;920;48.944;9.148;2023-02-01T10:29:54;5.50;;;2.60;;
1839;SDS011;920;48.944;9.148;2023-02-01T10:32:23;6.60;;;2.80;;
1839;SDS011;920;48.944;9.148;2023-02-01T10:35:08;9.20;;;3.17;;
1839;SDS011;920;48.944;9.148;2023-02-01T10:37:44;6.27;;;3.30;;
1839;SDS011;920;48.944;9.148;2023-02-01T10:40:21;7.53;;;2.67;;
1839;SDS011;920;48.944;9.148;2023-02-01T10:42:48;10.00;;;4.00;;
1839;SDS011;920;48.944;9.148;2023-02-01T10:45:16;9.53;;;4.30;;
1839;SDS011;920;48.944;9.148;2023-02-01T10:47:45;22.30;;;14.03;;
1839;SDS011;920;48.944;9.148;2023-02-01T10:50:15;10.97;;;5.73;;
1839;SDS011;920;48.944;9.148;2023-02-01T10:52:48;11.27;;;5.30;;
1839;SDS011;920;48.944;9.148;2023-02-01T10:55:26;12.00;;;4.00;;
1839;SDS011;920;48.944;9.148;2023-02-01T10:57:55;11.30;;;4.57;;
1839;SDS011;920;48.944;9.148;2023-02-01T11:00:27;8.40;;;4.17;;
1839;SDS011;920;48.944;9.148;2023-02-01T11:02:54;11.10;;;4.77;;
1839;SDS011;920;48.944;9.148;2023-02-01T11:05:24;9.90;;;2.97;;
1839;SDS011;920;48.944;9.148;2023-02-01T11:07:53;7.37;;;3.03;;
1839;SDS011;920;48.944;9.148;2023-02-01T11:10:34;7.27;;;2.67;;
1839;SDS011;920;48.944;9.148;2023-02-01T11:13:07;8.23;;;3.20;;
1839;SDS011;920;48.944;9.148;2023-02-01T11:15:42;6.70;;;2.90;;
1839;SDS011;920;48.944;9.148;2023-02-01T11:18:15;7.80;;;2.93;;
1839;SDS011;920;48.944;9.148;2023-02-01T11:20:46;7.90;;;3.20;;
1839;SDS011;920;48.944;9.148;2023-02-01T11:23:19;8.03;;;4.10;;
1839;SDS011;920;48.944;9.148;2023-02-01T11:25:48;6.20;;;2.77;;
1839;SDS011;920;48.944;9.148;2023-02-01T11:28:19;6.10;;;3.07;;
1839;SDS011;920;48.944;9.148;2023-02-01T11:30:47;5.70;;;2.63;;
1839;SDS011;920;48.944;9.148;2023-02-01T11:33:15;11.83;;;3.00;;
1839;SDS011;920;48.944;9.148;2023-02-01T11:35:44;7.57;;;2.97;;
1839;SDS011;920;48.944;9.148;2023-02-01T11:38:12;8.67;;;2.73;;
1839;SDS011;920;48.944;9.148;2023-02-01T11:40:45;6.57;;;2.27;;
1839;SDS011;920;48.944;9.148;2023-02-01T11:43:17;7.83;;;2.90;;
1839;SDS011;920;48.944;9.148;2023-02-01T11:45:56;4.37;;;2.10;;
1839;SDS011;920;48.944;9.148;2023-02-01T11:48:27;8.73;;;3.10;;
1839;SDS011;920;48.944;9.148;2023-02-01T11:51:19;7.77;;;2.43;;
1839;SDS011;920;48.944;9.148;2023-02-01T11:53:59;6.20;;;2.73;;
1839;SDS011;920;48.944;9.148;2023-02-01T11:56:35;6.60;;;2.33;;
1839;SDS011;920;48.944;9.148;2023-02-01T12:01:55;6.17;;;2.50;;
1839;SDS011;920;48.944;9.148;2023-02-01T12:07:35;7.00;;;2.40;;
1839;SDS011;920;48.944;9.148;2023-02-01T12:10:22;9.67;;;2.83;;
1839;SDS011;920;48.944;9.148;2023-02-01T12:12:55;10.37;;;3.10;;
1839;SDS011;920;48.944;9.148;2023-02-01T12:15:30;5.97;;;2.17;;
1839;SDS011;920;48.944;9.148;2023-02-01T12:18:25;6.27;;;2.70;;
1839;SDS011;920;48.944;9.148;2023-02-01T12:21:06;7.27;;;2.50;;
1839;SDS011;920;48.944;9.148;2023-02-01T12:23:52;5.43;;;2.40;;
1839;SDS011;920;48.944;9.148;2023-02-01T12:26:50;5.93;;;2.60;;
1839;SDS011;920;48.944;9.148;2023-02-01T12:32:28;7.23;;;2.40;;
1839;SDS011;920;48.944;9.148;2023-02-01T12:35:09;14.63;;;5.60;;
1839;SDS011;920;48.944;9.148;2023-02-01T12:37:48;8.70;;;3.60;;
1839;SDS011;920;48.944;9.148;2023-02-01T12:40:27;10.73;;;3.43;;
1839;SDS011;920;48.944;9.148;2023-02-01T12:43:01;5.30;;;2.67;;
1839;SDS011;920;48.944;9.148;2023-02-01T12:45:33;9.30;;;3.10;;
1839;SDS011;920;48.944;9.148;2023-02-01T12:48:13;5.23;;;2.80;;
1839;SDS011;920;48.944;9.148;2023-02-01T12:50:54;6.47;;;4.10;;
1839;SDS011;920;48.944;9.148;2023-02-01T12:53:25;7.70;;;3.40;;
1839;SDS011;920;48.944;9.148;2023-02-01T12:55:55;8.20;;;3.70;;
1839;SDS011;920;48.944;9.148;2023-02-01T12:58:25;10.37;;;3.60;;
1839;SDS011;920;48.944;9.148;2023-02-01T13:00:55;12.00;;;6.33;;
1839;SDS011;920;48.944;9.148;2023-02-01T13:03:38;9.43;;;5.27;;
1839;SDS011;920;48.944;9.148;2023-02-01T13:06:08;11.53;;;3.93;;
1839;SDS011;920;48.944;9.148;2023-02-01T13:08:40;7.57;;;3.80;;
1839;SDS011;920;48.944;9.148;2023-02-01T13:11:15;8.87;;;3.20;;
1839;SDS011;920;48.944;9.148;2023-02-01T13:13:48;6.90;;;3.60;;
1839;SDS011;920;48.944;9.148;2023-02-01T13:16:23;7.30;;;3.50;;
1839;SDS011;920;48.944;9.148;2023-02-01T13:19:03;6.30;;;2.70;;
1839;SDS011;920;48.944;9.148;2023-02-01T13:21:35;8.80;;;2.60;;
1839;SDS011;920;48.944;9.148;2023-02-01T13:24:06;4.60;;;2.40;;
1839;SDS011;920;48.944;9.148;2023-02-01T13:26:45;6.63;;;2.40;;
1839;SDS011;920;48.944;9.148;2023-02-01T13:29:27;5.30;;;2.83;;
1839;SDS011;920;48.944;9.148;2023-02-01T13:32:15;7.40;;;3.03;;
1839;SDS011;920;48.944;9.148;2023-02-01T13:35:03;7.87;;;2.60;;
1839;SDS011;920;48.944;9.148;2023-02-01T13:37:54;8.10;;;2.70;;
1839;SDS011;920;48.944;9.148;2023-02-01T13:40:36;5.70;;;2.77;;
1839;SDS011;920;48.944;9.148;2023-02-01T13:43:06;6.60;;;2.60;;
1839;SDS011;920;48.944;9.148;2023-02-01T13:45:44;5.20;;;2.50;;
1839;SDS011;920;48.944;9.148;2023-02-01T13:48:20;9.50;;;2.87;;
1839;SDS011;920;48.944;9.148;2023-02-01T13:50:51;5.40;;;2.33;;
1839;SDS011;920;48.944;9.148;2023-02-01T13:53:21;4.00;;;2.30;;
1839;SDS011;920;48.944;9.148;2023-02-01T13:55:54;5.13;;;2.70;;
1839;SDS011;920;48.944;9.148;2023-02-01T13:58:29;5.80;;;2.50;;
1839;SDS011;920;48.944;9.148;2023-02-01T14:07:21;9.30;;;3.70;;
1839;SDS011;920;48.944;9.148;2023-02-01T14:09:49;7.23;;;2.63;;
1839;SDS011;920;48.944;9.148;2023-02-01T14:15:17;7.13;;;2.43;;
1839;SDS011;920;48.944;9.148;2023-02-01T14:17:52;6.67;;;2.43;;
1839;SDS011;920;48.944;9.148;2023-02-01T14:23:29;9.80;;;2.80;;
1839;SDS011;920;48.944;9.148;2023-02-01T14:26:01;6.40;;;2.83;;
1839;SDS011;920;48.944;9.148;2023-02-01T14:28:43;7.83;;;2.90;;
1839;SDS011;920;48.944;9.148;2023-02-01T14:34:18;6.53;;;2.50;;
1839;SDS011;920;48.944;9.148;2023-02-01T14:36:51;11.43;;;3.10;;
1839;SDS011;920;48.944;9.148;2023-02-01T14:39:22;5.80;;;2.67;;
1839;SDS011;920;48.944;9.148;2023-02-01T14:42:01;6.50;;;2.60;;
1839;SDS011;920;48.944;9.148;2023-02-01T14:44:30;7.97;;;3.00;;
1839;SDS011;920;48.944;9.148;2023-02-01T14:47:03;5.53;;;2.60;;
1839;SDS011;920;48.944;9.148;2023-02-01T14:52:51;7.87;;;2.43;;
1839;SDS011;920;48.944;9.148;2023-02-01T14:55:27;7.00;;;2.47;;
1839;SDS011;920;48.944;9.148;2023-02-01T14:58:04;6.73;;;2.57;;
1839;SDS011;920;48.944;9.148;2023-02-01T15:00:35;8.60;;;2.67;;
1839;SDS011;920;48.944;9.148;2023-02-01T15:03:16;6.53;;;2.80;;
1839;SDS011;920;48.944;9.148;2023-02-01T15:06:13;8.10;;;2.67;;
1839;SDS011;920;48.944;9.148;2023-02-01T15:08:48;8.67;;;2.67;;
1839;SDS011;920;48.944;9.148;2023-02-01T15:11:17;6.47;;;2.77;;
1839;SDS011;920;48.944;9.148;2023-02-01T15:13:47;6.03;;;2.87;;
1839;SDS011;920;48.944;9.148;2023-02-01T15:16:21;6.33;;;3.03;;
1839;SDS011;920;48.944;9.148;2023-02-01T15:18:49;6.50;;;2.70;;
1839;SDS011;920;48.944;9.148;2023-02-01T15:21:16;7.87;;;2.87;;
1839;SDS011;920;48.944;9.148;2023-02-01T15:23:45;7.70;;;2.63;;
1839;SDS011;920;48.944;9.148;2023-02-01T15:26:29;5.87;;;2.33;;
1839;SDS011;920;48.944;9.148;2023-02-01T15:28:58;5.77;;;2.50;;
1839;SDS011;920;48.944;9.148;2023-02-01T15:31:34;5.67;;;2.60;;
1839;SDS011;920;48.944;9.148;2023-02-01T15:34:03;7.50;;;2.57;;
1839;SDS011;920;48.944;9.148;2023-02-01T15:36:29;5.60;;;2.00;;
1839;SDS011;920;48.944;9.148;2023-02-01T15:39:22;7.37;;;2.77;;
1839;SDS011;920;48.944;9.148;2023-02-01T15:42:10;8.83;;;3.37;;
1839;SDS011;920;48.944;9.148;2023-02-01T15:44:40;6.13;;;2.23;;
1839;SDS011;920;48.944;9.148;2023-02-01T15:47:12;7.47;;;3.20;;
1839;SDS011;920;48.944;9.148;2023-02-01T15:49:44;8.43;;;3.00;;
1839;SDS011;920;48.944;9.148;2023-02-01T15:52:16;6.80;;;2.90;;
1839;SDS011;920;48.944;9.148;2023-02-01T15:54:47;8.20;;;3.20;;
1839;SDS011;920;48.944;9.148;2023-02-01T15:57:22;8.90;;;2.70;;
1839;SDS011;920;48.944;9.148;2023-02-01T15:59:56;8.33;;;2.50;;
1839;SDS011;920;48.944;9.148;2023-02-01T16:02:28;8.63;;;3.50;;
1839;SDS011;920;48.944;9.148;2023-02-01T16:04:59;6.40;;;2.50;;
1839;SDS011;920;48.944;9.148;2023-02-01T16:07:29;7.13;;;2.93;;
1839;SDS011;920;48.944;9.148;2023-02-01T16:09:57;7.33;;;2.60;;
1839;SDS011;920;48.944;9.148;2023-02-01T16:12:30;7.93;;;2.80;;
1839;SDS011;920;48.944;9.148;2023-02-01T16:15:04;4.87;;;2.60;;
1839;SDS011;920;48.944;9.148;2023-02-01T16:17:31;5.90;;;2.60;;
1839;SDS011;920;48.944;9.148;2023-02-01T16:19:58;5.70;;;2.60;;
1839;SDS011;920;48.944;9.148;2023-02-01T16:22:27;5.93;;;2.87;;
1839;SDS011;920;48.944;9.148;2023-02-01T16:24:54;7.23;;;2.50;;
1839;SDS011;920;48.944;9.148;2023-02-01T16:27:22;6.53;;;3.53;;
1839;SDS011;920;48.944;9.148;2023-02-01T16:29:50;6.80;;;2.60;;